Home > Products > Valid Products > TAF

000
FTUS44 KSJT 241100
TAFABI
TAF
KABI 241120Z 2412/2512 25013KT P6SM BKN040
     FM241400 34015G22KT P6SM FEW250
     FM250000 36007KT P6SM SKC=



000
FTUS44 KSJT 241100
TAFSJT
TAF
KSJT 241120Z 2412/2512 23012KT P6SM SCT250
     FM241500 35015G22KT P6SM FEW250
     FM250000 36007KT P6SM SKC=



000
FTUS44 KSJT 241100
TAFJCT
TAF
KJCT 241120Z 2412/2512 16005KT P6SM SCT025
     FM241400 28009KT P6SM FEW025
     FM241600 35013KT P6SM SKC
     FM250000 02008KT P6SM SKC=



000
FTUS44 KSJT 241000 AAA
TAFJCT
TAF AMD
KJCT 241010Z 2410/2506 16005KT P6SM BKN020
     FM241500 28009KT P6SM FEW025
     FM241800 35013KT P6SM SKC
     FM250000 02008KT P6SM SKC=



000
FTUS44 KSJT 240500
TAFJCT
TAF
KJCT 240520Z 2406/2506 16009KT P6SM BKN250
     FM241100 21007KT P6SM SCT020
      TEMPO 2411/2415 BKN020
     FM241500 28009KT P6SM FEW025
     FM241800 35013KT P6SM SKC
     FM250000 02008KT P6SM SKC=



000
FTUS44 KSJT 240500
TAFSJT
TAF
KSJT 240520Z 2406/2506 18013KT P6SM SCT250
     FM241100 23012KT P6SM SCT250
     FM241500 35015G23KT P6SM FEW250
     FM250000 36007KT P6SM SKC=



000
FTUS44 KSJT 240500
TAFABI
TAF
KABI 240520Z 2406/2506 17017G25KT P6SM SCT250
     FM241100 23013G20KT P6SM SCT250
     FM241500 34015G24KT P6SM FEW250
     FM250000 36007KT P6SM SKC=



000
FTUS44 KSJT 240400 AAA
TAFJCT
TAF AMD
KJCT 240434Z 2405/2424 16008KT P6SM BKN250
     FM241100 21009KT P6SM SCT020
      TEMPO 2411/2415 BKN020
     FM241500 28009KT P6SM FEW025
     FM241630 35013KT P6SM SKC
     FM242355 01008KT P6SM SKC=



000
FTUS44 KSJT 240400 AAA
TAFSJT
TAF AMD
KSJT 240429Z 2404/2424 18013KT P6SM SCT250
     FM241100 23012KT P6SM SCT250
     FM241500 35015G23KT P6SM FEW250
     FM242355 36007KT P6SM SKC=



000
FTUS44 KSJT 240400 AAD
TAFABI
TAF AMD
KABI 240427Z 2404/2424 17017G25KT P6SM SCT250
     FM241100 23013G20KT P6SM SCT250
     FM241500 34015G24KT P6SM FEW250
     FM242355 36007KT P6SM SKC=



000
FTUS44 KSJT 240300 AAC
TAFABI
TAF AMD
KABI 240322Z 2403/2424 16014G22KT P6SM SCT050 BKN120
     FM240400 17016G24KT P6SM SCT070 BKN250
     FM241100 23013G20KT P6SM SCT250
     FM241500 34014G22KT P6SM SKC=



000
FTUS44 KSJT 240200 AAB
TAFABI
TAF AMD
KABI 240250Z 2403/2424 17030G50KT 3SM +TSRA BR BKN035CB
     FM240330 17016G24KT P6SM SCT070 BKN250
     FM241100 23013G20KT P6SM SCT250
     FM241500 34014G22KT P6SM SKC=



000
FTUS44 KSJT 240200 AAA
TAFABI
TAF AMD
KABI 240209Z 2402/2424 17020G30KT P6SM VCTS BKN070CB
      TEMPO 2402/2403 3SM +TSRA BR BKN035CB
     FM240400 17016G24KT P6SM SCT070 BKN250
     FM241100 23013G20KT P6SM SCT250
     FM241500 34014G22KT P6SM SKC=



000
FTUS44 KSJT 232300
TAFJCT
TAF
KJCT 232333Z 2400/2424 16016G24KT P6SM FEW080 BKN250
     FM240300 16013KT P6SM BKN250
     FM241100 21009KT P6SM BKN020
     FM241500 27009KT P6SM FEW025
     FM241800 35013KT P6SM SKC=



000
FTUS44 KSJT 232300
TAFSJT
TAF
KSJT 232333Z 2400/2424 19016G25KT P6SM SCT090
     FM240200 17014KT P6SM SCT100 BKN250
     FM241100 23011KT P6SM SCT025
     FM241500 35013G21KT P6SM SKC=



000
FTUS44 KSJT 232300
TAFABI
TAF
KABI 232333Z 2400/2424 17017G25KT P6SM BKN080
     FM240400 17016G24KT P6SM SCT070 BKN250
     FM241100 23013G20KT P6SM SCT250
     FM241500 34014G22KT P6SM SKC=



000
FTUS44 KSJT 232200 AAA
TAFABI
TAF AMD
KABI 232200Z 2322/2418 17020G30KT P6SM SCT080
     FM232300 17017G25KT P6SM VCTS BKN070CB
     FM240400 17015KT P6SM SCT070=



000
FTUS44 KSJT 231700
TAFJCT
TAF
KJCT 231720Z 2318/2418 16013G22KT P6SM SCT070
     FM240000 17012KT P6SM BKN250
     FM240900 16010G18KT P6SM BKN022=



000
FTUS44 KSJT 231700
TAFABI
TAF
KABI 231720Z 2318/2418 19020G30KT P6SM SCT080
     FM232300 17017G25KT P6SM VCTS BKN070CB
     FM240400 17015KT P6SM SCT070=



000
FTUS44 KSJT 231700
TAFSJT
TAF
KSJT 231720Z 2318/2418 19018G28KT P6SM SCT080
     FM240200 17014KT P6SM SCT100
     FM241200 17014G24KT P6SM SCT025=



000
FTUS44 KSJT 231100
TAFABI
TAF
KABI 231127Z 2312/2412 16011KT P6SM SKC
     FM231500 17020G30KT P6SM BKN250
     FM240000 17017G25KT P6SM VCTS BKN070CB
     FM240400 17015KT P6SM SCT070=



000
FTUS44 KSJT 231100
TAFSJT
TAF
KSJT 231127Z 2312/2412 16014G24KT P6SM SKC
     FM231400 18018G28KT P6SM BKN250
     FM240200 17014KT P6SM SCT100=



000
FTUS44 KSJT 231100
TAFJCT
TAF
KJCT 231127Z 2312/2412 14005KT P6SM FEW025
     FM231500 18013KT P6SM SCT025
     FM231800 17014KT P6SM BKN250=



000
FTUS44 KSJT 230500
TAFABI
TAF
KABI 230520Z 2306/2406 15009KT P6SM SKC
     FM230900 16014KT P6SM SKC
     FM231500 17020KT P6SM BKN250 PROB30 2400/2406 P6SM TS BKN050CB=



000
FTUS44 KSJT 230500
TAFSJT
TAF
KSJT 230520Z 2306/2406 12010KT P6SM SKC
     FM231400 18019G25KT P6SM BKN250=



000
FTUS44 KSJT 230500
TAFJCT
TAF
KJCT 230520Z 2306/2406 16006KT P6SM SKC
     FM231200 14005KT P6SM BKN015
     FM231500 18013KT P6SM OVC025
     FM231800 17014KT P6SM BKN250=



000
FTUS44 KSJT 222300
TAFSJT
TAF
KSJT 222320Z 2300/2324 09010KT P6SM SKC
     FM230200 14006KT P6SM SKC
     FM231500 18015G23KT P6SM SKC=



000
FTUS44 KSJT 222300
TAFABI
TAF
KABI 222320Z 2300/2324 12010KT P6SM SKC
     FM231400 18018G24KT P6SM SKC=



000
FTUS44 KSJT 222300
TAFJCT
TAF
KJCT 222320Z 2300/2324 VRB05KT P6SM SKC
     FM231300 16005KT P6SM OVC015
     FM231500 17009G15KT P6SM OVC025
     FM231600 17012G18KT P6SM BKN250=



000
FTUS44 KSJT 221700
TAFABI
TAF
KABI 221720Z 2218/2318 10009KT P6SM SKC
     FM230000 15008KT P6SM SKC
     FM231400 18016G24KT P6SM SKC=



000
FTUS44 KSJT 221700
TAFSJT
TAF
KSJT 221720Z 2218/2318 09007KT P6SM SKC
     FM230200 14006KT P6SM SKC
     FM231500 18015G23KT P6SM SKC=



000
FTUS44 KSJT 221700
TAFJCT
TAF
KJCT 221720Z 2218/2318 08007KT P6SM SKC
     FM230300 14005KT P6SM SKC
     FM231600 18012G20KT P6SM SKC=



000
FTUS44 KSJT 221100
TAFSJT
TAF
KSJT 221120Z 2212/2312 12007KT P6SM SKC=



000
FTUS44 KSJT 221100
TAFABI
TAF
KABI 221120Z 2212/2312 16007KT P6SM SKC=



000
FTUS44 KSJT 221100
TAFJCT
TAF
KJCT 221120Z 2212/2312 12006KT P6SM SKC=



000
FTUS44 KSJT 220500
TAFJCT
TAF
KJCT 220520Z 2206/2306 02008KT P6SM VCTS BKN060CB
     FM220800 36004KT P6SM SCT100=



000
FTUS44 KSJT 220500
TAFABI
TAF
KABI 220520Z 2206/2306 04006KT P6SM SKC=



000
FTUS44 KSJT 220500
TAFSJT
TAF
KSJT 220520Z 2206/2306 04008KT P6SM BKN100=



000
FTUS44 KSJT 220400 AAB
TAFJCT
TAF AMD
KJCT 220420Z 2204/2224 02008KT P6SM -TSRA BKN060CB
      TEMPO 2204/2206 VRB15G25KT 4SM TSRA BKN025CB
     FM220600 36004KT P6SM SCT100=



000
FTUS44 KSJT 220100 AAA
TAFJCT
TAF AMD
KJCT 220128Z 2201/2224 02008KT P6SM -TSRA BKN060CB
      TEMPO 2202/2205 VRB30G40KT 4SM TSRA BKN025CB
     FM220500 36004KT P6SM FEW100=



000
FTUS44 KSJT 212300
TAFABI
TAF
KABI 212320Z 2200/2224 02013G20KT P6SM SKC
     FM220100 02008KT P6SM SKC=



000
FTUS44 KSJT 212300
TAFSJT
TAF
KSJT 212320Z 2200/2224 34011G15KT P6SM VCTS SCT070CB
     FM220100 01008KT P6SM SKC=



000
FTUS44 KSJT 212300
TAFJCT
TAF
KJCT 212320Z 2200/2224 02008KT P6SM VCTS SCT060CB
     FM220500 36004KT P6SM FEW100=



000
FTUS44 KSJT 212200 AAA
TAFABI
TAF AMD
KABI 212235Z 2123/2218 36015G22KT P6SM FEW070
     FM220000 02010KT P6SM SKC=



000
FTUS44 KSJT 211700
TAFSJT
TAF
KSJT 211727Z 2118/2218 27011KT P6SM SKC
     FM212100 34011KT P6SM SKC
     FM220000 01008KT P6SM SKC=



000
FTUS44 KSJT 211700
TAFABI
TAF
KABI 211727Z 2118/2218 29011KT P6SM SKC
     FM212100 34010KT P6SM SKC
     FM220100 02010KT P6SM SKC=



000
FTUS44 KSJT 211700
TAFJCT
TAF
KJCT 211727Z 2118/2218 22011KT P6SM SKC
     FM212300 21008KT P6SM VCTS SCT060CB
     FM220500 36004KT P6SM FEW100=



000
FTUS44 KSJT 211500 AAA
TAFJCT
TAF AMD
KJCT 211508Z 2115/2212 21010KT P6SM FEW015
     FM211600 22008KT P6SM SCT025 BKN250
     FM220100 21008KT P6SM VCTS BKN030CB
     FM220900 02005KT P6SM SCT250=



000
FTUS44 KSJT 211400 AAA
TAFSJT
TAF AMD
KSJT 211443Z 2115/2212 22015G20KT P6SM SCT020
     FM211900 29014KT P6SM SCT250
     FM220000 36010KT P6SM SCT250=



000
FTUS44 KSJT 211400 AAB
TAFABI
TAF AMD
KABI 211439Z 2115/2212 25012KT P6SM SCT015
     FM211600 27014KT P6SM FEW250
     FM212100 32010KT P6SM SCT250
     FM220000 01010KT P6SM SCT250=



    US Dept of Commerce
    National Oceanic and Atmospheric Administration
    National Weather Service
    1325 East West Highway
    Silver Spring, MD 20910
    Page Author: NWS Internet Services Team
Disclaimer
Information Quality
Credits
Glossary
Privacy Policy
Freedom of Information Act (FOIA)
About Us
Career Opportunities